createdAt,value
2022-08-17T00:02:26.651Z,19.60
2022-08-17T00:04:54.967Z,19.60
2022-08-17T00:07:22.038Z,19.70
2022-08-17T00:09:48.955Z,19.70
2022-08-17T00:12:43.534Z,19.90
2022-08-17T00:15:04.795Z,19.90
2022-08-17T00:17:31.599Z,20.00
2022-08-17T00:19:59.726Z,20.00
2022-08-17T00:22:31.261Z,19.90
2022-08-17T00:25:07.349Z,19.90
2022-08-17T00:27:34.708Z,20.00
2022-08-17T00:30:01.732Z,20.00
2022-08-17T00:33:12.527Z,19.80
2022-08-17T00:35:19.266Z,20.10
2022-08-17T00:37:46.081Z,20.10
2022-08-17T00:40:15.408Z,20.30
2022-08-17T00:42:43.821Z,20.30
2022-08-17T00:45:13.980Z,20.20
2022-08-17T00:47:41.640Z,20.20
2022-08-17T00:50:11.104Z,20.40
2022-08-17T00:52:47.728Z,20.40
2022-08-17T00:55:14.881Z,20.30
2022-08-17T00:57:51.268Z,20.20
2022-08-17T01:00:26.870Z,20.20
2022-08-17T01:03:02.099Z,20.10
2022-08-17T01:05:32.037Z,19.70
2022-08-17T01:08:01.221Z,19.60
2022-08-17T01:10:58.482Z,19.80
2022-08-17T01:13:24.839Z,19.80
2022-08-17T01:16:20.286Z,19.80
2022-08-17T01:18:51.016Z,19.90
2022-08-17T01:21:43.131Z,20.00
2022-08-17T01:24:10.182Z,20.20
2022-08-17T01:26:39.242Z,20.30
2022-08-17T01:29:06.900Z,20.30
2022-08-17T01:31:38.081Z,20.10
2022-08-17T01:34:09.010Z,20.20
2022-08-17T01:36:38.730Z,20.10
2022-08-17T01:39:09.407Z,20.30
2022-08-17T01:41:37.944Z,20.10
2022-08-17T01:44:07.430Z,19.90
2022-08-17T01:46:36.534Z,19.80
2022-08-17T01:49:07.876Z,19.80
2022-08-17T01:51:34.707Z,20.00
2022-08-17T01:54:08.435Z,19.80
2022-08-17T01:56:38.661Z,19.80
2022-08-17T01:59:05.631Z,20.00
2022-08-17T02:01:34.620Z,20.00
2022-08-17T02:04:02.184Z,20.00
2022-08-17T02:06:43.977Z,20.00
2022-08-17T02:09:16.594Z,20.10
2022-08-17T02:11:44.446Z,20.20
2022-08-17T02:14:12.483Z,20.10
2022-08-17T02:16:41.390Z,20.20
2022-08-17T02:19:12.863Z,20.20
2022-08-17T02:21:40.772Z,20.20
2022-08-17T02:24:11.681Z,19.70
2022-08-17T02:26:38.594Z,19.60
2022-08-17T02:29:05.467Z,19.90
2022-08-17T02:31:32.327Z,20.10
2022-08-17T02:34:04.530Z,19.90
2022-08-17T02:36:36.124Z,20.00
2022-08-17T02:39:06.627Z,20.30
2022-08-17T02:41:33.914Z,20.40
2022-08-17T02:44:01.173Z,20.30
2022-08-17T02:46:28.638Z,20.30
2022-08-17T02:48:55.741Z,20.40
2022-08-17T02:51:23.093Z,20.40
2022-08-17T02:53:50.177Z,20.30
2022-08-17T02:56:17.027Z,20.20
2022-08-17T02:58:44.248Z,20.10
2022-08-17T03:01:11.230Z,20.10
2022-08-17T03:03:40.677Z,20.00
2022-08-17T03:06:08.208Z,19.90
2022-08-17T03:08:37.546Z,19.90
2022-08-17T03:11:04.748Z,20.10
2022-08-17T03:13:31.803Z,20.00
2022-08-17T03:15:58.955Z,20.10
2022-08-17T03:18:27.182Z,20.20
2022-08-17T03:20:57.254Z,20.00
2022-08-17T03:23:25.979Z,20.10
2022-08-17T03:25:55.604Z,20.10
2022-08-17T03:28:23.525Z,20.10
2022-08-17T03:30:51.438Z,20.20
2022-08-17T03:33:19.185Z,20.30
2022-08-17T03:35:46.251Z,20.30
2022-08-17T03:38:15.164Z,20.20
2022-08-17T03:40:57.564Z,20.30
2022-08-17T03:43:31.460Z,20.10
2022-08-17T03:46:28.725Z,20.00
2022-08-17T03:49:23.533Z,19.70
2022-08-17T03:52:08.842Z,19.70
2022-08-17T03:54:54.821Z,19.70
2022-08-17T03:57:21.720Z,19.70
2022-08-17T03:59:48.557Z,19.50
2022-08-17T04:02:23.468Z,19.30
2022-08-17T04:04:51.111Z,19.00
2022-08-17T04:07:22.763Z,19.00
2022-08-17T04:09:50.178Z,19.00
2022-08-17T04:12:21.449Z,19.10
2022-08-17T04:14:53.223Z,19.00
2022-08-17T04:17:26.731Z,19.20
2022-08-17T04:19:59.658Z,19.10
2022-08-17T04:22:31.401Z,19.10
2022-08-17T04:25:02.292Z,19.00
2022-08-17T04:27:29.076Z,19.00
2022-08-17T04:29:56.295Z,19.00
2022-08-17T04:33:00.578Z,19.00
2022-08-17T04:35:10.255Z,19.00
2022-08-17T04:37:37.080Z,18.70
2022-08-17T04:40:36.836Z,18.70
2022-08-17T04:43:13.978Z,18.70
2022-08-17T04:45:55.356Z,18.70
2022-08-17T04:48:35.236Z,18.70
2022-08-17T04:51:09.883Z,18.50
2022-08-17T04:53:38.386Z,18.50
2022-08-17T04:56:06.066Z,18.40
2022-08-17T04:58:33.258Z,18.60
2022-08-17T05:01:00.245Z,18.60
2022-08-17T05:03:27.577Z,18.50
2022-08-17T05:05:54.420Z,18.60
2022-08-17T05:08:21.701Z,18.50
2022-08-17T05:10:49.418Z,18.60
2022-08-17T05:13:24.664Z,18.50
2022-08-17T05:15:55.184Z,18.60
2022-08-17T05:18:22.543Z,18.50
2022-08-17T05:20:52.607Z,18.40
2022-08-17T05:23:21.468Z,18.40
2022-08-17T05:25:51.145Z,18.30
2022-08-17T05:28:24.031Z,18.40
2022-08-17T05:30:51.125Z,18.40
2022-08-17T05:33:21.078Z,18.50
2022-08-17T05:35:50.514Z,18.30
2022-08-17T05:38:19.784Z,18.20
2022-08-17T05:40:46.839Z,18.30
2022-08-17T05:43:16.575Z,18.30
2022-08-17T05:46:07.484Z,18.20
2022-08-17T05:48:39.989Z,18.20
2022-08-17T05:51:26.118Z,18.20
2022-08-17T05:54:11.188Z,18.10
2022-08-17T05:56:43.757Z,18.10
2022-08-17T05:59:37.155Z,18.20
2022-08-17T06:02:21.223Z,18.10
2022-08-17T06:04:47.988Z,18.10
2022-08-17T06:07:34.229Z,18.00
2022-08-17T06:10:17.342Z,17.90
2022-08-17T06:13:05.469Z,17.90
2022-08-17T06:15:58.185Z,17.90
2022-08-17T06:18:41.226Z,18.10
2022-08-17T06:21:13.532Z,18.20
2022-08-17T06:23:47.245Z,18.20
2022-08-17T06:26:38.503Z,18.20
2022-08-17T06:29:29.116Z,18.20
2022-08-17T06:31:56.181Z,18.20
2022-08-17T06:34:23.005Z,17.90
2022-08-17T06:37:13.552Z,18.00
2022-08-17T06:39:51.775Z,18.00
2022-08-17T06:43:02.814Z,18.00
2022-08-17T06:45:52.562Z,18.10
2022-08-17T06:48:32.788Z,18.10
2022-08-17T06:51:23.627Z,18.00
2022-08-17T06:54:05.201Z,18.20
2022-08-17T06:56:52.952Z,18.20
2022-08-17T06:59:53.210Z,18.10
2022-08-17T07:03:02.682Z,18.10
2022-08-17T07:05:45.296Z,18.10
2022-08-17T07:08:27.726Z,18.40
2022-08-17T07:11:01.269Z,18.50
2022-08-17T07:13:54.125Z,18.40
2022-08-17T07:16:28.095Z,18.40
2022-08-17T07:18:56.896Z,18.40
2022-08-17T07:21:34.245Z,18.60
2022-08-17T07:24:29.198Z,18.50
2022-08-17T07:27:21.221Z,18.50
2022-08-17T07:30:21.848Z,18.50
2022-08-17T07:32:57.840Z,18.50
2022-08-17T07:35:31.252Z,18.60
2022-08-17T07:38:25.859Z,18.60
2022-08-17T07:41:02.959Z,18.70
2022-08-17T07:43:37.784Z,18.80
2022-08-17T07:46:25.093Z,19.00
2022-08-17T07:48:56.641Z,19.20
2022-08-17T07:51:27.907Z,19.40
2022-08-17T07:54:13.066Z,19.60
2022-08-17T07:56:52.476Z,19.30
2022-08-17T07:59:21.831Z,19.40
2022-08-17T08:01:57.435Z,19.30
2022-08-17T08:07:57.286Z,19.40
2022-08-17T08:10:30.381Z,19.60
2022-08-17T08:13:13.027Z,19.10
2022-08-17T08:15:54.323Z,19.20
2022-08-17T08:18:54.719Z,19.50
2022-08-17T08:21:31.939Z,19.50
2022-08-17T08:24:17.172Z,19.60
2022-08-17T08:26:47.723Z,19.50
2022-08-17T08:29:14.897Z,19.70
2022-08-17T08:32:28.521Z,19.80
2022-08-17T08:35:38.072Z,19.60
2022-08-17T08:38:15.476Z,19.20
2022-08-17T08:41:00.521Z,19.30
2022-08-17T08:43:50.877Z,19.10
2022-08-17T08:46:50.144Z,19.30
2022-08-17T08:50:02.731Z,19.30
2022-08-17T08:52:34.059Z,19.20
2022-08-17T08:55:34.457Z,19.30
2022-08-17T08:58:07.637Z,19.50
2022-08-17T09:00:58.446Z,19.70
2022-08-17T09:04:21.523Z,20.00
2022-08-17T09:07:12.793Z,20.00
2022-08-17T09:09:53.364Z,19.60
2022-08-17T09:13:15.266Z,19.70
2022-08-17T09:15:50.237Z,19.60
2022-08-17T09:19:00.988Z,19.90
2022-08-17T09:21:52.828Z,19.90
2022-08-17T09:25:07.037Z,19.90
2022-08-17T09:27:52.369Z,19.80
2022-08-17T09:30:21.017Z,19.60
2022-08-17T09:32:56.180Z,19.60
2022-08-17T09:35:36.801Z,19.80
2022-08-17T09:38:50.516Z,20.00
2022-08-17T09:41:23.803Z,19.70
2022-08-17T09:44:00.218Z,19.80
2022-08-17T09:46:44.193Z,19.70
2022-08-17T09:49:35.310Z,19.50
2022-08-17T09:52:19.731Z,19.80
2022-08-17T09:54:50.865Z,19.90
2022-08-17T09:57:29.662Z,19.70
2022-08-17T10:00:16.434Z,20.00
2022-08-17T10:02:43.467Z,20.20
2022-08-17T10:05:18.001Z,20.20
2022-08-17T10:07:57.255Z,20.40
2022-08-17T10:10:56.484Z,20.10
2022-08-17T10:13:52.792Z,19.80
2022-08-17T10:16:30.103Z,19.80
2022-08-17T10:19:03.324Z,19.90
2022-08-17T10:22:00.764Z,20.10
2022-08-17T10:25:23.121Z,20.40
2022-08-17T10:28:05.949Z,20.30
2022-08-17T10:30:44.083Z,20.50
2022-08-17T10:33:19.801Z,20.30
2022-08-17T10:36:10.856Z,20.10
2022-08-17T10:39:06.399Z,19.90
2022-08-17T10:41:48.141Z,19.60
2022-08-17T10:44:37.387Z,19.50
2022-08-17T10:47:14.439Z,19.70
2022-08-17T10:49:47.719Z,19.70
2022-08-17T10:52:20.877Z,19.80
2022-08-17T10:54:48.808Z,20.10
2022-08-17T10:57:33.917Z,20.50
2022-08-17T11:00:15.955Z,20.20
2022-08-17T11:02:51.321Z,20.40
2022-08-17T11:05:43.950Z,20.60
2022-08-17T11:08:32.284Z,20.70
2022-08-17T11:11:08.155Z,20.10
2022-08-17T11:14:11.229Z,19.60
2022-08-17T11:16:51.523Z,19.70
2022-08-17T11:19:33.112Z,19.50
2022-08-17T11:22:33.521Z,19.30
2022-08-17T11:25:17.449Z,19.50
2022-08-17T11:27:53.676Z,19.30
2022-08-17T11:30:46.920Z,19.30
2022-08-17T11:33:33.987Z,19.30
2022-08-17T11:36:16.647Z,19.30
2022-08-17T11:38:57.955Z,19.40
2022-08-17T11:41:57.654Z,19.60
2022-08-17T11:44:33.161Z,19.80
2022-08-17T11:47:42.374Z,19.80
2022-08-17T11:50:55.874Z,19.70
2022-08-17T11:53:38.078Z,20.00
2022-08-17T11:56:29.098Z,19.50
2022-08-17T11:58:56.250Z,19.60
2022-08-17T12:01:23.023Z,19.90
2022-08-17T12:04:14.794Z,20.00
2022-08-17T12:06:56.908Z,20.00
2022-08-17T12:09:30.664Z,20.20
2022-08-17T12:12:12.627Z,20.20
2022-08-17T12:15:08.860Z,20.30
2022-08-17T12:17:39.209Z,20.20
2022-08-17T12:20:14.756Z,20.10
2022-08-17T12:22:48.205Z,20.20
2022-08-17T12:25:24.170Z,20.40
2022-08-17T12:28:05.009Z,20.50
2022-08-17T12:30:34.558Z,20.30
2022-08-17T12:33:01.470Z,20.10
2022-08-17T12:35:35.232Z,20.10
2022-08-17T12:38:06.460Z,20.00
2022-08-17T12:40:57.957Z,20.20
2022-08-17T12:43:30.476Z,20.40
2022-08-17T12:46:15.045Z,20.10
2022-08-17T12:48:58.709Z,20.20
2022-08-17T12:51:29.111Z,20.40
2022-08-17T12:53:56.646Z,20.40
2022-08-17T12:56:23.575Z,20.20
2022-08-17T12:58:54.283Z,20.00
2022-08-17T13:01:23.373Z,19.90
2022-08-17T13:03:53.613Z,19.70
2022-08-17T13:06:33.878Z,19.90
2022-08-17T13:09:35.654Z,20.20
2022-08-17T13:12:07.819Z,20.00
2022-08-17T13:14:35.349Z,19.90
2022-08-17T13:17:08.350Z,20.10
2022-08-17T13:19:48.518Z,20.50
2022-08-17T13:22:15.359Z,20.30
2022-08-17T13:24:53.217Z,20.00
2022-08-17T13:27:23.786Z,20.20
2022-08-17T13:29:56.348Z,20.20
2022-08-17T13:32:34.936Z,20.50
2022-08-17T13:35:29.722Z,20.60
2022-08-17T13:38:37.480Z,20.60
2022-08-17T13:41:07.382Z,20.50
2022-08-17T13:43:40.708Z,20.40
2022-08-17T13:46:11.067Z,20.00
2022-08-17T13:48:38.161Z,20.00
2022-08-17T13:51:15.399Z,20.30
2022-08-17T13:53:42.132Z,20.40
2022-08-17T13:56:37.587Z,20.30
2022-08-17T13:59:02.696Z,20.20
2022-08-17T14:01:29.654Z,19.90
2022-08-17T14:03:57.271Z,19.90
2022-08-17T14:06:51.630Z,19.90
2022-08-17T14:09:14.971Z,19.60
2022-08-17T14:11:42.516Z,19.50
2022-08-17T14:14:09.386Z,19.50
2022-08-17T14:16:40.233Z,19.30
2022-08-17T14:19:12.636Z,19.40
2022-08-17T14:21:44.509Z,19.50
2022-08-17T14:24:29.203Z,19.50
2022-08-17T14:26:57.199Z,19.30
2022-08-17T14:29:25.880Z,19.40
2022-08-17T14:31:54.297Z,19.60
2022-08-17T14:34:25.754Z,19.70
2022-08-17T14:36:52.965Z,19.90
2022-08-17T14:39:20.759Z,20.10
2022-08-17T14:41:48.257Z,19.80
2022-08-17T14:44:15.527Z,19.40
2022-08-17T14:46:44.399Z,19.50
2022-08-17T14:49:15.609Z,19.70
2022-08-17T14:51:52.733Z,19.70
2022-08-17T14:54:32.606Z,19.60
2022-08-17T14:57:23.096Z,19.50
2022-08-17T14:59:50.696Z,19.40
2022-08-17T15:02:30.003Z,19.40
2022-08-17T15:05:04.149Z,19.30
2022-08-17T15:07:31.621Z,19.20
2022-08-17T15:10:01.455Z,19.30
2022-08-17T15:12:33.190Z,19.70
2022-08-17T15:15:04.463Z,19.60
2022-08-17T15:17:44.565Z,19.50
2022-08-17T15:20:18.446Z,19.40
2022-08-17T15:22:46.990Z,19.40
2022-08-17T15:25:14.451Z,19.40
2022-08-17T15:27:41.808Z,19.30
2022-08-17T15:30:10.100Z,19.40
2022-08-17T15:32:39.180Z,19.60
2022-08-17T15:35:08.793Z,19.50
2022-08-17T15:37:36.414Z,19.40
2022-08-17T15:40:05.334Z,19.70
2022-08-17T15:42:32.940Z,19.80
2022-08-17T15:45:06.715Z,19.70
2022-08-17T15:47:33.677Z,19.70
2022-08-17T15:50:00.678Z,19.70
2022-08-17T15:52:32.079Z,19.60
2022-08-17T15:55:00.714Z,19.60
2022-08-17T15:57:28.123Z,19.60
2022-08-17T15:59:58.623Z,19.80
2022-08-17T16:03:29.439Z,19.70
2022-08-17T16:05:24.991Z,19.40
2022-08-17T16:07:53.477Z,19.40
2022-08-17T16:10:21.391Z,19.70
2022-08-17T16:12:50.324Z,19.90
2022-08-17T16:15:18.310Z,19.80
2022-08-17T16:17:45.244Z,19.60
2022-08-17T16:20:20.170Z,19.50
2022-08-17T16:22:48.677Z,19.40
2022-08-17T16:25:19.232Z,19.40
2022-08-17T16:27:49.140Z,19.40
2022-08-17T16:30:17.582Z,19.60
2022-08-17T16:32:44.880Z,19.60
2022-08-17T16:35:14.296Z,19.60
2022-08-17T16:37:41.763Z,19.50
2022-08-17T16:40:13.282Z,19.60
2022-08-17T16:42:40.823Z,19.70
2022-08-17T16:45:11.829Z,19.80
2022-08-17T16:47:39.517Z,19.80
2022-08-17T16:50:08.016Z,19.80
2022-08-17T16:52:35.319Z,19.90
2022-08-17T16:55:03.738Z,19.70
2022-08-17T16:57:30.845Z,19.80
2022-08-17T16:59:58.323Z,19.90
2022-08-17T17:02:39.005Z,19.80
2022-08-17T17:05:25.324Z,19.90
2022-08-17T17:08:09.212Z,19.90
2022-08-17T17:10:50.868Z,19.80
2022-08-17T17:13:35.401Z,20.10
2022-08-17T17:16:17.244Z,20.10
2022-08-17T17:18:57.304Z,20.00
2022-08-17T17:21:32.802Z,20.10
2022-08-17T17:24:06.709Z,20.00
2022-08-17T17:26:56.438Z,20.10
2022-08-17T17:29:35.821Z,20.00
2022-08-17T17:32:48.330Z,20.00
2022-08-17T17:35:20.794Z,19.90
2022-08-17T17:37:48.582Z,20.00
2022-08-17T17:40:24.608Z,20.00
2022-08-17T17:42:55.118Z,19.90
2022-08-17T17:45:26.114Z,20.00
2022-08-17T17:47:53.521Z,19.90
2022-08-17T17:50:27.622Z,19.80
2022-08-17T17:53:19.951Z,19.70
2022-08-17T17:56:39.849Z,19.40
2022-08-17T17:59:12.768Z,19.50
2022-08-17T18:01:54.442Z,19.70
2022-08-17T18:04:25.795Z,19.50
2022-08-17T18:07:01.827Z,19.40
2022-08-17T18:10:02.882Z,19.40
2022-08-17T18:12:38.172Z,19.60
2022-08-17T18:15:10.876Z,19.30
2022-08-17T18:17:37.849Z,19.20
2022-08-17T18:20:07.271Z,19.20
2022-08-17T18:22:34.185Z,19.20
2022-08-17T18:25:01.111Z,19.00
2022-08-17T18:27:40.805Z,18.90
2022-08-17T18:30:13.639Z,18.90
2022-08-17T18:32:44.401Z,18.90
2022-08-17T18:35:11.180Z,18.90
2022-08-17T18:38:02.914Z,19.00
2022-08-17T18:40:34.319Z,19.10
2022-08-17T18:43:02.939Z,19.10
2022-08-17T18:45:43.080Z,18.90
2022-08-17T18:48:28.922Z,18.90
2022-08-17T18:51:02.120Z,18.70
2022-08-17T18:53:39.035Z,18.70
2022-08-17T18:56:26.380Z,18.60
2022-08-17T18:58:53.164Z,18.70
2022-08-17T19:01:21.487Z,18.60
2022-08-17T19:04:34.657Z,18.60
2022-08-17T19:07:23.323Z,18.70
2022-08-17T19:10:05.649Z,18.40
2022-08-17T19:12:39.201Z,18.30
2022-08-17T19:15:10.111Z,18.20
2022-08-17T19:17:45.943Z,18.30
2022-08-17T19:20:19.473Z,18.30
2022-08-17T19:23:06.694Z,18.30
2022-08-17T19:25:40.360Z,18.10
2022-08-17T19:28:22.419Z,18.10
2022-08-17T19:30:54.667Z,18.10
2022-08-17T19:33:22.004Z,18.00
2022-08-17T19:35:59.321Z,18.00
2022-08-17T19:38:42.232Z,18.10
2022-08-17T19:41:28.421Z,18.00
2022-08-17T19:44:26.919Z,18.00
2022-08-17T19:47:00.748Z,17.90
2022-08-17T19:49:56.158Z,18.10
2022-08-17T19:52:36.329Z,18.10
2022-08-17T19:55:20.277Z,18.00
2022-08-17T19:58:06.486Z,18.00
2022-08-17T20:00:39.923Z,17.90
2022-08-17T20:03:46.396Z,18.00
2022-08-17T20:06:14.376Z,18.20
2022-08-17T20:08:58.198Z,18.20
2022-08-17T20:11:34.120Z,18.10
2022-08-17T20:14:12.560Z,18.10
2022-08-17T20:16:39.425Z,17.80
2022-08-17T20:19:20.989Z,18.00
2022-08-17T20:22:01.199Z,18.10
2022-08-17T20:24:35.173Z,18.00
2022-08-17T20:27:24.888Z,17.90
2022-08-17T20:30:33.036Z,18.10
2022-08-17T20:33:00.949Z,18.30
2022-08-17T20:35:36.478Z,18.10
2022-08-17T20:38:05.238Z,17.90
2022-08-17T20:40:55.090Z,18.00
2022-08-17T20:43:35.203Z,18.10
2022-08-17T20:46:41.569Z,18.20
2022-08-17T20:49:14.665Z,18.00
2022-08-17T20:52:10.293Z,17.90
2022-08-17T20:54:51.495Z,17.90
2022-08-17T20:57:33.598Z,18.00
2022-08-17T21:00:18.070Z,18.10
2022-08-17T21:03:12.134Z,18.00
2022-08-17T21:05:59.820Z,17.80
2022-08-17T21:08:41.326Z,17.80
2022-08-17T21:12:03.502Z,17.90
2022-08-17T21:14:18.280Z,17.90
2022-08-17T21:16:45.124Z,18.10
2022-08-17T21:19:23.755Z,18.00
2022-08-17T21:22:15.568Z,17.80
2022-08-17T21:25:24.822Z,17.90
2022-08-17T21:28:18.109Z,18.10
2022-08-17T21:30:56.666Z,18.10
2022-08-17T21:33:32.200Z,18.10
2022-08-17T21:36:14.236Z,18.00
2022-08-17T21:38:57.379Z,17.80
2022-08-17T21:41:44.308Z,17.70
2022-08-17T21:44:30.571Z,17.70
2022-08-17T21:47:24.550Z,17.80
2022-08-17T21:49:52.625Z,17.80
2022-08-17T21:52:23.785Z,17.80
2022-08-17T21:55:02.500Z,17.80
2022-08-17T21:58:11.467Z,17.90
2022-08-17T22:00:31.951Z,17.60
2022-08-17T22:03:02.371Z,17.90
2022-08-17T22:05:39.723Z,17.70
2022-08-17T22:08:16.554Z,17.60
2022-08-17T22:10:45.841Z,17.60
2022-08-17T22:13:22.200Z,17.90
2022-08-17T22:16:27.633Z,17.90
2022-08-17T22:18:58.030Z,18.00
2022-08-17T22:21:25.567Z,18.10
2022-08-17T22:24:04.990Z,18.00
2022-08-17T22:27:03.004Z,17.80
2022-08-17T22:29:57.385Z,18.10
2022-08-17T22:32:43.577Z,18.20
2022-08-17T22:35:35.893Z,18.20
2022-08-17T22:38:21.262Z,18.20
2022-08-17T22:40:54.488Z,18.10
2022-08-17T22:43:26.192Z,18.10
2022-08-17T22:45:56.712Z,18.10
2022-08-17T22:48:27.999Z,18.20
2022-08-17T22:51:17.523Z,18.30
2022-08-17T22:54:11.899Z,18.30
2022-08-17T22:57:05.356Z,18.00
2022-08-17T22:59:37.701Z,18.10
2022-08-17T23:02:26.326Z,18.00
2022-08-17T23:04:57.315Z,17.90
2022-08-17T23:07:24.216Z,17.90
2022-08-17T23:09:52.038Z,17.80
2022-08-17T23:12:26.327Z,17.80
2022-08-17T23:15:00.444Z,17.80
2022-08-17T23:17:37.098Z,17.80
2022-08-17T23:20:08.320Z,17.90
2022-08-17T23:22:38.149Z,17.90
2022-08-17T23:25:30.443Z,18.00
2022-08-17T23:28:01.693Z,17.80
2022-08-17T23:30:30.433Z,17.80
2022-08-17T23:33:03.505Z,17.80
2022-08-17T23:35:40.013Z,18.00
2022-08-17T23:38:12.241Z,18.10
2022-08-17T23:40:40.019Z,18.00
2022-08-17T23:43:23.581Z,18.00
2022-08-17T23:45:54.001Z,17.90
2022-08-17T23:48:32.475Z,17.90
2022-08-17T23:51:12.412Z,17.80
2022-08-17T23:53:44.039Z,17.80
2022-08-17T23:56:11.667Z,17.90
2022-08-17T23:58:42.253Z,18.00
